sensor_id;sensor_type;location;lat;lon;timestamp;temperature;humidity
65470;DHT22;52067;50.710;14.492;2024-03-02T00:02:01;9.63;91.19
65470;DHT22;52067;50.710;14.492;2024-03-02T00:04:26;9.64;91.18
65470;DHT22;52067;50.710;14.492;2024-03-02T00:06:52;9.62;91.03
65470;DHT22;52067;50.710;14.492;2024-03-02T00:09:22;9.64;91.09
65470;DHT22;52067;50.710;14.492;2024-03-02T00:11:48;9.82;90.96
65470;DHT22;52067;50.710;14.492;2024-03-02T00:14:13;9.70;90.84
65470;DHT22;52067;50.710;14.492;2024-03-02T00:16:39;9.73;90.88
65470;DHT22;52067;50.710;14.492;2024-03-02T00:19:08;9.64;91.04
65470;DHT22;52067;50.710;14.492;2024-03-02T00:21:34;9.73;90.99
65470;DHT22;52067;50.710;14.492;2024-03-02T00:24:01;9.79;90.82
65470;DHT22;52067;50.710;14.492;2024-03-02T00:26:32;9.46;90.64
65470;DHT22;52067;50.710;14.492;2024-03-02T00:29:00;9.36;91.43
65470;DHT22;52067;50.710;14.492;2024-03-02T00:31:26;9.46;91.41
65470;DHT22;52067;50.710;14.492;2024-03-02T00:33:51;9.69;91.27
65470;DHT22;52067;50.710;14.492;2024-03-02T00:36:25;9.84;90.96
65470;DHT22;52067;50.710;14.492;2024-03-02T00:38:53;9.89;90.69
65470;DHT22;52067;50.710;14.492;2024-03-02T00:43:59;9.77;90.55
65470;DHT22;52067;50.710;14.492;2024-03-02T00:46:28;9.77;90.48
65470;DHT22;52067;50.710;14.492;2024-03-02T00:48:56;9.87;90.40
65470;DHT22;52067;50.710;14.492;2024-03-02T00:51:23;9.91;90.30
65470;DHT22;52067;50.710;14.492;2024-03-02T00:53:49;9.93;90.23
65470;DHT22;52067;50.710;14.492;2024-03-02T00:56:14;10.01;90.12
65470;DHT22;52067;50.710;14.492;2024-03-02T00:58:40;9.95;90.08
65470;DHT22;52067;50.710;14.492;2024-03-02T01:01:08;10.01;89.94
65470;DHT22;52067;50.710;14.492;2024-03-02T01:03:35;9.82;90.06
65470;DHT22;52067;50.710;14.492;2024-03-02T01:06:00;9.83;90.30
65470;DHT22;52067;50.710;14.492;2024-03-02T01:08:26;9.89;90.25
65470;DHT22;52067;50.710;14.492;2024-03-02T01:10:52;9.70;90.61
65470;DHT22;52067;50.710;14.492;2024-03-02T01:13:17;9.70;90.55
65470;DHT22;52067;50.710;14.492;2024-03-02T01:15:43;9.63;90.66
65470;DHT22;52067;50.710;14.492;2024-03-02T01:18:09;9.67;90.80
65470;DHT22;52067;50.710;14.492;2024-03-02T01:20:34;9.60;90.80
65470;DHT22;52067;50.710;14.492;2024-03-02T01:23:00;9.52;90.93
65470;DHT22;52067;50.710;14.492;2024-03-02T01:25:25;9.56;91.10
65470;DHT22;52067;50.710;14.492;2024-03-02T01:27:51;9.56;90.93
65470;DHT22;52067;50.710;14.492;2024-03-02T01:30:16;9.50;91.21
65470;DHT22;52067;50.710;14.492;2024-03-02T01:32:41;9.36;91.27
65470;DHT22;52067;50.710;14.492;2024-03-02T01:35:07;9.42;91.22
65470;DHT22;52067;50.710;14.492;2024-03-02T01:37:33;9.53;91.22
65470;DHT22;52067;50.710;14.492;2024-03-02T01:39:58;9.40;91.15
65470;DHT22;52067;50.710;14.492;2024-03-02T01:42:24;9.49;91.12
65470;DHT22;52067;50.710;14.492;2024-03-02T01:44:50;9.55;91.07
65470;DHT22;52067;50.710;14.492;2024-03-02T01:47:15;9.40;91.14
65470;DHT22;52067;50.710;14.492;2024-03-02T01:49:41;9.50;91.13
65470;DHT22;52067;50.710;14.492;2024-03-02T01:52:07;9.40;91.07
65470;DHT22;52067;50.710;14.492;2024-03-02T01:54:32;9.45;91.17
65470;DHT22;52067;50.710;14.492;2024-03-02T01:56:58;9.29;91.29
65470;DHT22;52067;50.710;14.492;2024-03-02T01:59:24;9.26;91.43
65470;DHT22;52067;50.710;14.492;2024-03-02T02:01:50;9.35;91.39
65470;DHT22;52067;50.710;14.492;2024-03-02T02:04:24;9.34;91.33
65470;DHT22;52067;50.710;14.492;2024-03-02T02:06:53;9.35;91.29
65470;DHT22;52067;50.710;14.492;2024-03-02T02:09:19;9.35;91.29
65470;DHT22;52067;50.710;14.492;2024-03-02T02:11:44;9.35;91.23
65470;DHT22;52067;50.710;14.492;2024-03-02T02:14:10;9.31;91.23
65470;DHT22;52067;50.710;14.492;2024-03-02T02:16:36;9.40;91.25
65470;DHT22;52067;50.710;14.492;2024-03-02T02:19:02;9.31;91.25
65470;DHT22;52067;50.710;14.492;2024-03-02T02:21:27;9.40;91.24
65470;DHT22;52067;50.710;14.492;2024-03-02T02:23:52;9.25;91.21
65470;DHT22;52067;50.710;14.492;2024-03-02T02:26:18;9.34;91.26
65470;DHT22;52067;50.710;14.492;2024-03-02T02:28:43;9.29;91.27
65470;DHT22;52067;50.710;14.492;2024-03-02T02:31:13;9.36;91.21
65470;DHT22;52067;50.710;14.492;2024-03-02T02:33:42;9.46;91.12
65470;DHT22;52067;50.710;14.492;2024-03-02T02:36:08;9.43;91.08
65470;DHT22;52067;50.710;14.492;2024-03-02T02:38:37;9.36;91.13
65470;DHT22;52067;50.710;14.492;2024-03-02T02:41:04;9.39;91.05
65470;DHT22;52067;50.710;14.492;2024-03-02T02:43:29;9.39;91.16
65470;DHT22;52067;50.710;14.492;2024-03-02T02:45:54;9.39;91.20
65470;DHT22;52067;50.710;14.492;2024-03-02T02:48:20;9.53;91.14
65470;DHT22;52067;50.710;14.492;2024-03-02T02:50:45;9.39;90.89
65470;DHT22;52067;50.710;14.492;2024-03-02T02:53:11;9.47;90.87
65470;DHT22;52067;50.710;14.492;2024-03-02T02:55:36;9.62;90.73
65470;DHT22;52067;50.710;14.492;2024-03-02T02:58:06;9.62;90.51
65470;DHT22;52067;50.710;14.492;2024-03-02T03:00:32;9.70;90.23
65470;DHT22;52067;50.710;14.492;2024-03-02T03:03:00;9.57;90.19
65470;DHT22;52067;50.710;14.492;2024-03-02T03:05:26;9.57;90.61
65470;DHT22;52067;50.710;14.492;2024-03-02T03:07:51;9.69;90.31
65470;DHT22;52067;50.710;14.492;2024-03-02T03:10:17;9.60;90.35
65470;DHT22;52067;50.710;14.492;2024-03-02T03:12:43;9.53;90.25
65470;DHT22;52067;50.710;14.492;2024-03-02T03:15:09;9.56;90.29
65470;DHT22;52067;50.710;14.492;2024-03-02T03:17:35;9.69;90.28
65470;DHT22;52067;50.710;14.492;2024-03-02T03:20:02;9.76;90.00
65470;DHT22;52067;50.710;14.492;2024-03-02T03:22:29;9.86;89.75
65470;DHT22;52067;50.710;14.492;2024-03-02T03:24:55;9.89;89.51
65470;DHT22;52067;50.710;14.492;2024-03-02T03:27:20;9.87;89.43
65470;DHT22;52067;50.710;14.492;2024-03-02T03:29:45;9.87;89.42
65470;DHT22;52067;50.710;14.492;2024-03-02T03:32:11;9.74;89.40
65470;DHT22;52067;50.710;14.492;2024-03-02T03:34:36;9.55;90.31
65470;DHT22;52067;50.710;14.492;2024-03-02T03:37:02;9.50;90.30
65470;DHT22;52067;50.710;14.492;2024-03-02T03:39:28;9.53;90.35
65470;DHT22;52067;50.710;14.492;2024-03-02T03:41:56;9.53;90.26
65470;DHT22;52067;50.710;14.492;2024-03-02T03:44:21;9.50;90.31
65470;DHT22;52067;50.710;14.492;2024-03-02T03:46:47;9.36;90.40
65470;DHT22;52067;50.710;14.492;2024-03-02T03:49:12;9.47;90.53
65470;DHT22;52067;50.710;14.492;2024-03-02T03:51:37;9.39;90.44
65470;DHT22;52067;50.710;14.492;2024-03-02T03:54:03;9.29;90.93
65470;DHT22;52067;50.710;14.492;2024-03-02T03:56:28;9.34;90.71
65470;DHT22;52067;50.710;14.492;2024-03-02T03:58:53;9.43;90.82
65470;DHT22;52067;50.710;14.492;2024-03-02T04:01:19;9.39;90.53
65470;DHT22;52067;50.710;14.492;2024-03-02T04:03:44;9.38;90.50
65470;DHT22;52067;50.710;14.492;2024-03-02T04:06:10;9.43;90.55
65470;DHT22;52067;50.710;14.492;2024-03-02T04:08:35;9.49;90.49
65470;DHT22;52067;50.710;14.492;2024-03-02T04:11:01;9.52;90.26
65470;DHT22;52067;50.710;14.492;2024-03-02T04:13:28;9.46;90.14
65470;DHT22;52067;50.710;14.492;2024-03-02T04:15:53;9.29;90.61
65470;DHT22;52067;50.710;14.492;2024-03-02T04:18:19;9.24;90.85
65470;DHT22;52067;50.710;14.492;2024-03-02T04:20:44;9.31;90.77
65470;DHT22;52067;50.710;14.492;2024-03-02T04:23:09;9.26;90.61
65470;DHT22;52067;50.710;14.492;2024-03-02T04:25:35;9.07;90.88
65470;DHT22;52067;50.710;14.492;2024-03-02T04:28:01;9.12;90.84
65470;DHT22;52067;50.710;14.492;2024-03-02T04:30:26;9.11;90.86
65470;DHT22;52067;50.710;14.492;2024-03-02T04:32:52;9.08;90.97
65470;DHT22;52067;50.710;14.492;2024-03-02T04:35:17;9.03;90.78
65470;DHT22;52067;50.710;14.492;2024-03-02T04:37:42;9.04;90.92
65470;DHT22;52067;50.710;14.492;2024-03-02T04:40:09;9.10;90.81
65470;DHT22;52067;50.710;14.492;2024-03-02T04:42:35;9.05;90.72
65470;DHT22;52067;50.710;14.492;2024-03-02T04:45:01;8.92;90.86
65470;DHT22;52067;50.710;14.492;2024-03-02T04:47:26;8.97;90.75
65470;DHT22;52067;50.710;14.492;2024-03-02T04:49:52;9.01;90.74
65470;DHT22;52067;50.710;14.492;2024-03-02T04:52:17;9.08;90.62
65470;DHT22;52067;50.710;14.492;2024-03-02T04:54:43;9.03;90.55
65470;DHT22;52067;50.710;14.492;2024-03-02T04:57:27;8.98;90.48
65470;DHT22;52067;50.710;14.492;2024-03-02T04:59:52;9.05;90.80
65470;DHT22;52067;50.710;14.492;2024-03-02T05:02:17;9.05;90.49
65470;DHT22;52067;50.710;14.492;2024-03-02T05:04:43;9.10;90.40
65470;DHT22;52067;50.710;14.492;2024-03-02T05:07:08;9.08;90.36
65470;DHT22;52067;50.710;14.492;2024-03-02T05:09:34;8.98;90.24
65470;DHT22;52067;50.710;14.492;2024-03-02T05:11:59;9.05;90.20
65470;DHT22;52067;50.710;14.492;2024-03-02T05:14:42;9.00;90.27
65470;DHT22;52067;50.710;14.492;2024-03-02T05:17:08;9.07;90.22
65470;DHT22;52067;50.710;14.492;2024-03-02T05:19:33;8.87;90.41
65470;DHT22;52067;50.710;14.492;2024-03-02T05:21:58;8.87;90.26
65470;DHT22;52067;50.710;14.492;2024-03-02T05:24:24;8.94;90.40
65470;DHT22;52067;50.710;14.492;2024-03-02T05:26:52;8.94;90.18
65470;DHT22;52067;50.710;14.492;2024-03-02T05:29:17;8.91;89.92
65470;DHT22;52067;50.710;14.492;2024-03-02T05:31:43;8.87;89.82
65470;DHT22;52067;50.710;14.492;2024-03-02T05:34:08;8.85;89.79
65470;DHT22;52067;50.710;14.492;2024-03-02T05:36:33;8.89;89.67
65470;DHT22;52067;50.710;14.492;2024-03-02T05:38:59;8.88;89.41
65470;DHT22;52067;50.710;14.492;2024-03-02T05:41:24;8.85;89.54
65470;DHT22;52067;50.710;14.492;2024-03-02T05:43:49;8.92;89.46
65470;DHT22;52067;50.710;14.492;2024-03-02T05:46:15;8.88;89.42
65470;DHT22;52067;50.710;14.492;2024-03-02T05:48:40;8.88;89.18
65470;DHT22;52067;50.710;14.492;2024-03-02T05:51:06;8.83;89.26
65470;DHT22;52067;50.710;14.492;2024-03-02T05:53:31;8.80;89.24
65470;DHT22;52067;50.710;14.492;2024-03-02T05:55:58;8.76;88.98
65470;DHT22;52067;50.710;14.492;2024-03-02T05:58:23;8.66;89.15
65470;DHT22;52067;50.710;14.492;2024-03-02T06:01:07;8.68;88.94
65470;DHT22;52067;50.710;14.492;2024-03-02T06:03:32;8.70;88.93
65470;DHT22;52067;50.710;14.492;2024-03-02T06:05:58;8.68;89.00
65470;DHT22;52067;50.710;14.492;2024-03-02T06:08:23;8.53;89.04
65470;DHT22;52067;50.710;14.492;2024-03-02T06:10:49;8.57;89.06
65470;DHT22;52067;50.710;14.492;2024-03-02T06:13:14;8.67;88.70
65470;DHT22;52067;50.710;14.492;2024-03-02T06:15:39;8.76;88.73
65470;DHT22;52067;50.710;14.492;2024-03-02T06:18:05;8.74;88.41
65470;DHT22;52067;50.710;14.492;2024-03-02T06:20:32;8.87;88.14
65470;DHT22;52067;50.710;14.492;2024-03-02T06:22:58;8.87;88.05
65470;DHT22;52067;50.710;14.492;2024-03-02T06:25:23;8.77;88.18
65470;DHT22;52067;50.710;14.492;2024-03-02T06:27:49;8.74;88.14
65470;DHT22;52067;50.710;14.492;2024-03-02T06:30:14;8.84;88.10
65470;DHT22;52067;50.710;14.492;2024-03-02T06:32:40;8.89;87.82
65470;DHT22;52067;50.710;14.492;2024-03-02T06:35:05;8.91;87.81
65470;DHT22;52067;50.710;14.492;2024-03-02T06:37:33;9.03;87.83
65470;DHT22;52067;50.710;14.492;2024-03-02T06:39:58;8.89;87.71
65470;DHT22;52067;50.710;14.492;2024-03-02T06:42:24;8.89;87.31
65470;DHT22;52067;50.710;14.492;2024-03-02T06:44:52;8.78;87.93
65470;DHT22;52067;50.710;14.492;2024-03-02T06:47:18;8.85;87.65
65470;DHT22;52067;50.710;14.492;2024-03-02T06:49:45;9.00;87.85
65470;DHT22;52067;50.710;14.492;2024-03-02T06:52:10;8.88;87.45
65470;DHT22;52067;50.710;14.492;2024-03-02T06:54:36;8.78;87.50
65470;DHT22;52067;50.710;14.492;2024-03-02T06:57:02;8.97;87.19
65470;DHT22;52067;50.710;14.492;2024-03-02T06:59:27;8.98;86.96
65470;DHT22;52067;50.710;14.492;2024-03-02T07:01:52;8.80;87.01
65470;DHT22;52067;50.710;14.492;2024-03-02T07:04:18;8.85;87.12
65470;DHT22;52067;50.710;14.492;2024-03-02T07:06:43;8.84;86.96
65470;DHT22;52067;50.710;14.492;2024-03-02T07:09:08;8.71;87.13
65470;DHT22;52067;50.710;14.492;2024-03-02T07:11:36;8.91;86.91
65470;DHT22;52067;50.710;14.492;2024-03-02T07:14:01;8.92;86.57
65470;DHT22;52067;50.710;14.492;2024-03-02T07:16:27;8.95;86.17
65470;DHT22;52067;50.710;14.492;2024-03-02T07:18:54;8.84;86.35
65470;DHT22;52067;50.710;14.492;2024-03-02T07:21:21;8.76;85.82
65470;DHT22;52067;50.710;14.492;2024-03-02T07:23:47;8.67;85.94
65470;DHT22;52067;50.710;14.492;2024-03-02T07:26:13;8.73;86.17
65470;DHT22;52067;50.710;14.492;2024-03-02T07:28:40;8.66;86.18
65470;DHT22;52067;50.710;14.492;2024-03-02T07:31:06;8.71;86.19
65470;DHT22;52067;50.710;14.492;2024-03-02T07:33:32;8.74;85.92
65470;DHT22;52067;50.710;14.492;2024-03-02T07:35:58;8.76;85.61
65470;DHT22;52067;50.710;14.492;2024-03-02T07:38:28;8.84;85.30
65470;DHT22;52067;50.710;14.492;2024-03-02T07:40:54;8.74;86.00
65470;DHT22;52067;50.710;14.492;2024-03-02T07:43:20;8.71;85.52
65470;DHT22;52067;50.710;14.492;2024-03-02T07:45:47;8.77;85.51
65470;DHT22;52067;50.710;14.492;2024-03-02T07:48:12;8.74;85.51
65470;DHT22;52067;50.710;14.492;2024-03-02T07:50:38;8.76;85.43
65470;DHT22;52067;50.710;14.492;2024-03-02T07:53:04;8.77;85.33
65470;DHT22;52067;50.710;14.492;2024-03-02T07:55:30;8.83;84.97
65470;DHT22;52067;50.710;14.492;2024-03-02T07:58:00;8.63;85.80
65470;DHT22;52067;50.710;14.492;2024-03-02T08:00:25;8.68;85.01
65470;DHT22;52067;50.710;14.492;2024-03-02T08:02:52;8.68;85.43
65470;DHT22;52067;50.710;14.492;2024-03-02T08:05:18;8.78;85.27
65470;DHT22;52067;50.710;14.492;2024-03-02T08:07:46;8.84;84.94
65470;DHT22;52067;50.710;14.492;2024-03-02T08:10:12;8.77;85.48
65470;DHT22;52067;50.710;14.492;2024-03-02T08:12:38;8.85;84.86
65470;DHT22;52067;50.710;14.492;2024-03-02T08:15:04;8.91;84.87
65470;DHT22;52067;50.710;14.492;2024-03-02T08:17:30;9.03;84.94
65470;DHT22;52067;50.710;14.492;2024-03-02T08:19:55;9.16;84.59
65470;DHT22;52067;50.710;14.492;2024-03-02T08:22:21;9.14;84.83
65470;DHT22;52067;50.710;14.492;2024-03-02T08:24:47;9.31;84.47
65470;DHT22;52067;50.710;14.492;2024-03-02T08:27:12;9.38;83.72
65470;DHT22;52067;50.710;14.492;2024-03-02T08:29:37;9.29;83.07
65470;DHT22;52067;50.710;14.492;2024-03-02T08:32:04;9.18;84.73
65470;DHT22;52067;50.710;14.492;2024-03-02T08:34:33;9.31;84.04
65470;DHT22;52067;50.710;14.492;2024-03-02T08:37:01;9.38;84.66
65470;DHT22;52067;50.710;14.492;2024-03-02T08:39:27;9.56;83.37
65470;DHT22;52067;50.710;14.492;2024-03-02T08:41:52;9.36;83.58
65470;DHT22;52067;50.710;14.492;2024-03-02T08:44:18;9.56;82.56
65470;DHT22;52067;50.710;14.492;2024-03-02T08:46:44;9.42;82.69
65470;DHT22;52067;50.710;14.492;2024-03-02T08:49:09;9.47;82.60
65470;DHT22;52067;50.710;14.492;2024-03-02T08:51:35;9.50;82.51
65470;DHT22;52067;50.710;14.492;2024-03-02T08:54:00;9.62;82.07
65470;DHT22;52067;50.710;14.492;2024-03-02T08:56:26;9.74;81.83
65470;DHT22;52067;50.710;14.492;2024-03-02T08:58:52;9.79;81.71
65470;DHT22;52067;50.710;14.492;2024-03-02T09:01:18;9.73;82.19
65470;DHT22;52067;50.710;14.492;2024-03-02T09:03:44;9.86;82.12
65470;DHT22;52067;50.710;14.492;2024-03-02T09:06:11;9.98;81.24
65470;DHT22;52067;50.710;14.492;2024-03-02T09:08:36;10.12;80.58
65470;DHT22;52067;50.710;14.492;2024-03-02T09:11:06;9.89;80.62
65470;DHT22;52067;50.710;14.492;2024-03-02T09:13:32;10.00;80.56
65470;DHT22;52067;50.710;14.492;2024-03-02T09:15:58;9.90;80.63
65470;DHT22;52067;50.710;14.492;2024-03-02T09:18:24;10.17;79.97
65470;DHT22;52067;50.710;14.492;2024-03-02T09:20:50;10.37;79.70
65470;DHT22;52067;50.710;14.492;2024-03-02T09:23:15;10.71;78.12
65470;DHT22;52067;50.710;14.492;2024-03-02T09:25:43;10.72;78.25
65470;DHT22;52067;50.710;14.492;2024-03-02T09:28:09;10.68;78.59
65470;DHT22;52067;50.710;14.492;2024-03-02T09:30:37;10.93;76.88
65470;DHT22;52067;50.710;14.492;2024-03-02T09:33:03;10.83;76.42
65470;DHT22;52067;50.710;14.492;2024-03-02T09:35:28;10.72;78.63
65470;DHT22;52067;50.710;14.492;2024-03-02T09:37:55;10.86;77.19
65470;DHT22;52067;50.710;14.492;2024-03-02T09:40:21;11.21;76.91
65470;DHT22;52067;50.710;14.492;2024-03-02T09:42:47;11.11;77.00
65470;DHT22;52067;50.710;14.492;2024-03-02T09:45:21;10.83;77.54
65470;DHT22;52067;50.710;14.492;2024-03-02T09:47:47;10.92;77.80
65470;DHT22;52067;50.710;14.492;2024-03-02T09:50:13;10.73;76.99
65470;DHT22;52067;50.710;14.492;2024-03-02T09:52:40;10.55;78.18
65470;DHT22;52067;50.710;14.492;2024-03-02T09:55:11;10.75;78.41
65470;DHT22;52067;50.710;14.492;2024-03-02T09:57:36;10.86;78.00
65470;DHT22;52067;50.710;14.492;2024-03-02T10:00:02;10.72;75.91
65470;DHT22;52067;50.710;14.492;2024-03-02T10:02:34;10.76;76.91
65470;DHT22;52067;50.710;14.492;2024-03-02T10:05:10;10.51;78.79
65470;DHT22;52067;50.710;14.492;2024-03-02T10:08:06;10.71;77.95
65470;DHT22;52067;50.710;14.492;2024-03-02T10:10:40;10.58;78.77
65470;DHT22;52067;50.710;14.492;2024-03-02T10:13:18;10.51;77.29
65470;DHT22;52067;50.710;14.492;2024-03-02T10:15:46;10.63;78.33
65470;DHT22;52067;50.710;14.492;2024-03-02T10:18:12;10.84;77.74
65470;DHT22;52067;50.710;14.492;2024-03-02T10:20:39;10.76;77.35
65470;DHT22;52067;50.710;14.492;2024-03-02T10:23:15;10.93;77.52
65470;DHT22;52067;50.710;14.492;2024-03-02T10:25:42;10.88;77.06
65470;DHT22;52067;50.710;14.492;2024-03-02T10:28:08;10.99;75.40
65470;DHT22;52067;50.710;14.492;2024-03-02T10:30:34;11.13;75.99
65470;DHT22;52067;50.710;14.492;2024-03-02T10:33:04;11.10;75.08
65470;DHT22;52067;50.710;14.492;2024-03-02T10:35:30;11.03;75.54
65470;DHT22;52067;50.710;14.492;2024-03-02T10:38:04;11.09;75.47
65470;DHT22;52067;50.710;14.492;2024-03-02T10:40:31;10.92;74.78
65470;DHT22;52067;50.710;14.492;2024-03-02T10:42:57;11.37;73.38
65470;DHT22;52067;50.710;14.492;2024-03-02T10:45:23;11.40;72.58
65470;DHT22;52067;50.710;14.492;2024-03-02T10:47:51;11.30;72.81
65470;DHT22;52067;50.710;14.492;2024-03-02T10:50:17;11.10;75.12
65470;DHT22;52067;50.710;14.492;2024-03-02T10:52:42;11.07;75.56
65470;DHT22;52067;50.710;14.492;2024-03-02T10:55:09;11.23;75.44
65470;DHT22;52067;50.710;14.492;2024-03-02T10:57:52;11.21;74.48
65470;DHT22;52067;50.710;14.492;2024-03-02T11:00:19;11.00;75.49
65470;DHT22;52067;50.710;14.492;2024-03-02T11:02:57;11.50;74.09
65470;DHT22;52067;50.710;14.492;2024-03-02T11:05:27;11.62;72.47
65470;DHT22;52067;50.710;14.492;2024-03-02T11:08:00;11.54;73.79
65470;DHT22;52067;50.710;14.492;2024-03-02T11:10:34;11.85;71.84
65470;DHT22;52067;50.710;14.492;2024-03-02T11:13:02;11.89;71.28
65470;DHT22;52067;50.710;14.492;2024-03-02T11:15:31;11.86;71.10
65470;DHT22;52067;50.710;14.492;2024-03-02T11:17:57;11.90;70.79
65470;DHT22;52067;50.710;14.492;2024-03-02T11:20:23;12.03;69.39
65470;DHT22;52067;50.710;14.492;2024-03-02T11:22:50;12.43;69.04
65470;DHT22;52067;50.710;14.492;2024-03-02T11:25:26;13.35;65.73
65470;DHT22;52067;50.710;14.492;2024-03-02T11:33:01;13.02;68.19
65470;DHT22;52067;50.710;14.492;2024-03-02T11:35:33;13.12;67.41
65470;DHT22;52067;50.710;14.492;2024-03-02T11:37:58;13.94;64.22
65470;DHT22;52067;50.710;14.492;2024-03-02T11:40:28;13.20;66.35
65470;DHT22;52067;50.710;14.492;2024-03-02T11:42:53;13.44;65.47
65470;DHT22;52067;50.710;14.492;2024-03-02T11:45:26;13.62;64.85
65470;DHT22;52067;50.710;14.492;2024-03-02T11:47:58;13.05;65.76
65470;DHT22;52067;50.710;14.492;2024-03-02T11:50:34;13.18;66.69
65470;DHT22;52067;50.710;14.492;2024-03-02T11:53:00;12.92;66.70
65470;DHT22;52067;50.710;14.492;2024-03-02T11:55:26;12.38;67.86
65470;DHT22;52067;50.710;14.492;2024-03-02T11:57:54;12.22;69.99
65470;DHT22;52067;50.710;14.492;2024-03-02T12:00:20;11.98;68.29
65470;DHT22;52067;50.710;14.492;2024-03-02T12:02:47;11.99;69.40
65470;DHT22;52067;50.710;14.492;2024-03-02T12:05:16;12.12;69.88
65470;DHT22;52067;50.710;14.492;2024-03-02T12:07:42;11.48;70.88
65470;DHT22;52067;50.710;14.492;2024-03-02T12:10:08;11.62;70.31
65470;DHT22;52067;50.710;14.492;2024-03-02T12:12:34;11.68;70.74
65470;DHT22;52067;50.710;14.492;2024-03-02T12:14:59;11.86;70.34
65470;DHT22;52067;50.710;14.492;2024-03-02T12:17:26;11.90;71.34
65470;DHT22;52067;50.710;14.492;2024-03-02T12:19:51;11.79;70.75
65470;DHT22;52067;50.710;14.492;2024-03-02T12:22:18;11.85;70.89
65470;DHT22;52067;50.710;14.492;2024-03-02T12:24:44;11.69;71.49
65470;DHT22;52067;50.710;14.492;2024-03-02T12:27:13;11.50;71.19
65470;DHT22;52067;50.710;14.492;2024-03-02T12:29:42;11.26;72.55
65470;DHT22;52067;50.710;14.492;2024-03-02T12:32:08;11.38;72.68
65470;DHT22;52067;50.710;14.492;2024-03-02T12:34:33;11.51;72.55
65470;DHT22;52067;50.710;14.492;2024-03-02T12:36:59;11.45;71.38
65470;DHT22;52067;50.710;14.492;2024-03-02T12:39:24;11.38;73.27
65470;DHT22;52067;50.710;14.492;2024-03-02T12:41:50;11.44;72.73
65470;DHT22;52067;50.710;14.492;2024-03-02T12:44:19;11.28;72.55
65470;DHT22;52067;50.710;14.492;2024-03-02T12:46:46;11.38;72.29
65470;DHT22;52067;50.710;14.492;2024-03-02T12:49:13;11.32;72.79
65470;DHT22;52067;50.710;14.492;2024-03-02T12:51:40;11.34;72.37
65470;DHT22;52067;50.710;14.492;2024-03-02T12:54:09;11.32;72.61
65470;DHT22;52067;50.710;14.492;2024-03-02T12:56:36;11.24;73.28
65470;DHT22;52067;50.710;14.492;2024-03-02T12:59:01;11.41;72.21
65470;DHT22;52067;50.710;14.492;2024-03-02T13:01:27;11.37;72.31
65470;DHT22;52067;50.710;14.492;2024-03-02T13:03:53;11.30;72.04
65470;DHT22;52067;50.710;14.492;2024-03-02T13:06:23;11.20;72.70
65470;DHT22;52067;50.710;14.492;2024-03-02T13:08:49;11.20;72.58
65470;DHT22;52067;50.710;14.492;2024-03-02T13:11:16;11.00;72.85
65470;DHT22;52067;50.710;14.492;2024-03-02T13:13:44;11.09;72.68
65470;DHT22;52067;50.710;14.492;2024-03-02T13:16:10;10.93;72.83
65470;DHT22;52067;50.710;14.492;2024-03-02T13:18:37;10.96;72.93
65470;DHT22;52067;50.710;14.492;2024-03-02T13:21:03;10.99;72.79
65470;DHT22;52067;50.710;14.492;2024-03-02T13:23:28;10.84;73.83
65470;DHT22;52067;50.710;14.492;2024-03-02T13:25:58;10.99;73.31
65470;DHT22;52067;50.710;14.492;2024-03-02T13:28:25;11.10;73.24
65470;DHT22;52067;50.710;14.492;2024-03-02T13:30:50;10.76;74.12
65470;DHT22;52067;50.710;14.492;2024-03-02T13:33:26;10.71;73.89
65470;DHT22;52067;50.710;14.492;2024-03-02T13:35:51;10.84;73.08
65470;DHT22;52067;50.710;14.492;2024-03-02T13:38:20;10.92;73.99
65470;DHT22;52067;50.710;14.492;2024-03-02T13:40:48;10.86;74.00
65470;DHT22;52067;50.710;14.492;2024-03-02T13:43:16;10.89;74.01
65470;DHT22;52067;50.710;14.492;2024-03-02T13:45:42;10.92;74.01
65470;DHT22;52067;50.710;14.492;2024-03-02T13:48:10;11.03;72.90
65470;DHT22;52067;50.710;14.492;2024-03-02T13:50:39;10.84;74.21
65470;DHT22;52067;50.710;14.492;2024-03-02T13:53:08;10.76;74.66
65470;DHT22;52067;50.710;14.492;2024-03-02T13:55:34;10.86;74.52
65470;DHT22;52067;50.710;14.492;2024-03-02T13:57:59;10.90;74.51
65470;DHT22;52067;50.710;14.492;2024-03-02T14:00:25;10.76;75.04
65470;DHT22;52067;50.710;14.492;2024-03-02T14:02:50;10.72;75.00
65470;DHT22;52067;50.710;14.492;2024-03-02T14:05:16;10.77;75.45
65470;DHT22;52067;50.710;14.492;2024-03-02T14:07:42;10.89;74.62
65470;DHT22;52067;50.710;14.492;2024-03-02T14:10:08;10.82;74.27
65470;DHT22;52067;50.710;14.492;2024-03-02T14:12:33;10.68;75.14
65470;DHT22;52067;50.710;14.492;2024-03-02T14:14:59;10.75;74.87
65470;DHT22;52067;50.710;14.492;2024-03-02T14:17:27;10.80;75.03
65470;DHT22;52067;50.710;14.492;2024-03-02T14:19:52;10.76;75.40
65470;DHT22;52067;50.710;14.492;2024-03-02T14:22:19;10.89;75.24
65470;DHT22;52067;50.710;14.492;2024-03-02T14:24:44;10.90;74.47
65470;DHT22;52067;50.710;14.492;2024-03-02T14:27:10;11.01;75.28
65470;DHT22;52067;50.710;14.492;2024-03-02T14:29:35;11.00;74.91
65470;DHT22;52067;50.710;14.492;2024-03-02T14:32:03;11.13;74.80
65470;DHT22;52067;50.710;14.492;2024-03-02T14:34:29;10.96;74.31
65470;DHT22;52067;50.710;14.492;2024-03-02T14:36:54;11.13;74.58
65470;DHT22;52067;50.710;14.492;2024-03-02T14:39:20;11.27;74.33
65470;DHT22;52067;50.710;14.492;2024-03-02T14:41:46;11.37;74.34
65470;DHT22;52067;50.710;14.492;2024-03-02T14:44:11;11.45;73.28
65470;DHT22;52067;50.710;14.492;2024-03-02T14:46:36;11.42;73.53
65470;DHT22;52067;50.710;14.492;2024-03-02T14:49:02;11.47;73.85
65470;DHT22;52067;50.710;14.492;2024-03-02T14:51:27;11.20;74.94
65470;DHT22;52067;50.710;14.492;2024-03-02T14:53:55;11.34;74.28
65470;DHT22;52067;50.710;14.492;2024-03-02T14:56:20;11.35;73.61
65470;DHT22;52067;50.710;14.492;2024-03-02T14:58:46;11.47;73.19
65470;DHT22;52067;50.710;14.492;2024-03-02T15:01:11;11.40;74.57
65470;DHT22;52067;50.710;14.492;2024-03-02T15:03:36;11.23;73.52
65470;DHT22;52067;50.710;14.492;2024-03-02T15:06:02;11.34;74.63
65470;DHT22;52067;50.710;14.492;2024-03-02T15:08:29;11.37;75.32
65470;DHT22;52067;50.710;14.492;2024-03-02T15:10:54;11.30;75.35
65470;DHT22;52067;50.710;14.492;2024-03-02T15:13:24;11.23;74.89
65470;DHT22;52067;50.710;14.492;2024-03-02T15:15:51;11.27;75.40
65470;DHT22;52067;50.710;14.492;2024-03-02T15:18:17;11.26;74.90
65470;DHT22;52067;50.710;14.492;2024-03-02T15:20:43;11.34;74.25
65470;DHT22;52067;50.710;14.492;2024-03-02T15:23:08;11.30;74.13
65470;DHT22;52067;50.710;14.492;2024-03-02T15:25:33;11.30;74.93
65470;DHT22;52067;50.710;14.492;2024-03-02T15:27:59;11.41;74.49
65470;DHT22;52067;50.710;14.492;2024-03-02T15:30:24;11.35;74.85